Jersey City, NJ (07302)

1:52 PM EDT on August 26, 2016 (GMT -0400)
The Heights | | Change Station

Elev 128 ft 40.74 °N, 74.05 °W | Updated 0 second ago

Mostly Cloudy
Mostly Cloudy
90.5 °F
Feels Like 95 °F
N
4.3
Wind Variable Wind from WNW
Gusts 7.4 mph

Today
High -- | Low -- °F
--% Chance of Precip.
Yesterday
High -- | Low -- °F
Precip. -- in
Pressure 29.98 in
Visibility 10.0 miles
Clouds Mostly Cloudy 4900 ft
Heat Index 95 °F
Dew Point 68 °F
Humidity 48%
Rainfall 0.00 in
Snow Depth Not available.
6:17 AM 7:37 PM
Waning Crescent, 32% visible
METAR KJRB 261735Z 31005KT 10SM BKN049 34/20 A2998 RMK AO1
Pressure 29.98 in
Visibility 10.0 miles
Clouds Mostly Cloudy 4900 ft
Heat Index 95 °F
Dew Point 68 °F
Humidity 48%
Rainfall 0.00 in
Snow Depth Not available.
6:17 AM 7:37 PM
Waning Crescent, 32% visible
METAR KJRB 261735Z 31005KT 10SM BKN049 34/20 A2998 RMK AO1

10-Day Weather Forecast

Almanac

Astronomy

Aug. 26, 2016 Rise Set
Actual Time
Civil Twilight
Nautical Twilight
Astronomical Twilight
Moon
Length of Visible Light
Length of Day
Tomorrow will be .
, % of the Moon is Illuminated

Today's Extremes

State Highs State Lows

Community

WunderPhotos

Upload Photos

1,935,152 photos uploaded!

WunderBlog® & News

Nearby

Air Quality

  Air Quality AQ Index Pollutant
Not available.

Snow Depth

Station Depth Elevation

Earthquake Activity

City Distance Mag. Time & Date
Minimum magnitude displayed is 2.5.

Coastal Water Temperatures

Place Temperature

Stations

Nearby Weather Stations

Station Location Temp. Windchill Dew Point Humidity Wind Precip. Elev Updated Type
                   

Watches & Warnings

There are currently no watches in effect.